sensor_id;sensor_type;location;lat;lon;timestamp;pressure;altitude;pressure_sealevel;temperature;humidity
77279;BME280;66332;50.436;15.378;2023-03-05T05:04:51;97877.06;;;0.77;68.82
77279;BME280;66332;50.436;15.378;2023-03-05T05:09:32;97878.97;;;0.75;69.32
77279;BME280;66332;50.436;15.378;2023-03-05T05:14:13;97873.03;;;0.63;69.74
77279;BME280;66332;50.436;15.378;2023-03-05T05:18:54;97880.72;;;0.74;70.38
77279;BME280;66332;50.436;15.378;2023-03-05T05:23:35;97886.69;;;0.54;71.46
77279;BME280;66332;50.436;15.378;2023-03-05T05:28:16;97884.38;;;0.51;71.54
77279;BME280;66332;50.436;15.378;2023-03-05T05:32:57;97877.38;;;0.30;72.44
77279;BME280;66332;50.436;15.378;2023-03-05T05:37:38;97890.78;;;0.35;73.91
77279;BME280;66332;50.436;15.378;2023-03-05T05:42:21;97897.50;;;0.27;74.05
77279;BME280;66332;50.436;15.378;2023-03-05T05:47:02;97894.25;;;0.25;74.67
77279;BME280;66332;50.436;15.378;2023-03-05T05:51:43;97885.38;;;0.27;74.53
77279;BME280;66332;50.436;15.378;2023-03-05T05:56:24;97888.38;;;0.22;74.10
77279;BME280;66332;50.436;15.378;2023-03-05T06:01:32;97899.91;;;0.18;74.01
77279;BME280;66332;50.436;15.378;2023-03-05T06:06:15;97901.28;;;0.22;71.82
77279;BME280;66332;50.436;15.378;2023-03-05T06:10:57;97875.06;;;-0.16;70.43
77279;BME280;66332;50.436;15.378;2023-03-05T06:15:38;97870.56;;;-0.03;69.79
77279;BME280;66332;50.436;15.378;2023-03-05T06:20:19;97880.69;;;0.00;67.89
77279;BME280;66332;50.436;15.378;2023-03-05T06:25:01;97878.72;;;-0.19;68.35
77279;BME280;66332;50.436;15.378;2023-03-05T06:29:42;97901.69;;;0.07;67.76
77279;BME280;66332;50.436;15.378;2023-03-05T06:34:23;97869.72;;;0.08;65.84
77279;BME280;66332;50.436;15.378;2023-03-05T06:39:04;97895.50;;;0.30;64.46
77279;BME280;66332;50.436;15.378;2023-03-05T06:43:45;97898.75;;;0.43;64.58
77279;BME280;66332;50.436;15.378;2023-03-05T06:48:36;97866.56;;;0.36;63.90
77279;BME280;66332;50.436;15.378;2023-03-05T06:53:19;97849.28;;;0.37;63.88
77279;BME280;66332;50.436;15.378;2023-03-05T06:58:08;97838.81;;;0.38;63.18
77279;BME280;66332;50.436;15.378;2023-03-05T07:02:50;97865.00;;;0.45;63.99
77279;BME280;66332;50.436;15.378;2023-03-05T07:07:34;97901.75;;;0.81;62.04
77279;BME280;66332;50.436;15.378;2023-03-05T07:12:15;97891.59;;;0.68;62.32
77279;BME280;66332;50.436;15.378;2023-03-05T07:16:57;97901.66;;;0.50;63.26
77279;BME280;66332;50.436;15.378;2023-03-05T07:21:38;97908.63;;;0.38;64.69
77279;BME280;66332;50.436;15.378;2023-03-05T07:26:20;97896.03;;;0.13;66.13
77279;BME280;66332;50.436;15.378;2023-03-05T07:31:11;97898.28;;;0.06;69.01
77279;BME280;66332;50.436;15.378;2023-03-05T07:35:53;97930.38;;;-0.08;72.27
77279;BME280;66332;50.436;15.378;2023-03-05T07:40:34;97906.31;;;-0.19;73.94
77279;BME280;66332;50.436;15.378;2023-03-05T07:45:16;97918.41;;;-0.31;74.93
77279;BME280;66332;50.436;15.378;2023-03-05T07:49:57;97911.91;;;-0.03;73.15
77279;BME280;66332;50.436;15.378;2023-03-05T07:54:38;97901.97;;;-0.19;74.21
77279;BME280;66332;50.436;15.378;2023-03-05T07:59:19;97892.75;;;-0.01;73.75
77279;BME280;66332;50.436;15.378;2023-03-05T08:04:01;97881.31;;;0.25;73.04
77279;BME280;66332;50.436;15.378;2023-03-05T08:08:42;97875.19;;;0.26;72.47
77279;BME280;66332;50.436;15.378;2023-03-05T08:13:23;97899.66;;;0.96;71.24
77279;BME280;66332;50.436;15.378;2023-03-05T08:18:04;97870.03;;;1.09;67.82
77279;BME280;66332;50.436;15.378;2023-03-05T08:22:45;97872.72;;;1.29;66.68
77279;BME280;66332;50.436;15.378;2023-03-05T08:27:26;97872.06;;;1.06;68.76
77279;BME280;66332;50.436;15.378;2023-03-05T08:32:07;97884.63;;;1.10;67.49
77279;BME280;66332;50.436;15.378;2023-03-05T08:36:48;97877.47;;;1.03;68.13
77279;BME280;66332;50.436;15.378;2023-03-05T08:41:29;97873.22;;;0.92;70.54
77279;BME280;66332;50.436;15.378;2023-03-05T08:46:15;97877.47;;;1.24;71.36
77279;BME280;66332;50.436;15.378;2023-03-05T08:50:57;97866.88;;;1.36;68.15
77279;BME280;66332;50.436;15.378;2023-03-05T08:55:38;97860.69;;;1.58;66.71
77279;BME280;66332;50.436;15.378;2023-03-05T09:00:19;97832.28;;;1.47;66.18
77279;BME280;66332;50.436;15.378;2023-03-05T09:05:00;97841.63;;;1.69;64.41
77279;BME280;66332;50.436;15.378;2023-03-05T09:09:41;97840.75;;;2.28;61.82
77279;BME280;66332;50.436;15.378;2023-03-05T09:14:22;97828.16;;;2.43;62.37
77279;BME280;66332;50.436;15.378;2023-03-05T09:19:06;97837.59;;;2.15;62.03
77279;BME280;66332;50.436;15.378;2023-03-05T09:23:50;97839.84;;;1.79;62.76
77279;BME280;66332;50.436;15.378;2023-03-05T09:28:31;97836.81;;;1.55;63.91
77279;BME280;66332;50.436;15.378;2023-03-05T09:33:12;97837.56;;;1.36;65.36
77279;BME280;66332;50.436;15.378;2023-03-05T09:37:53;97825.16;;;1.40;64.57
77279;BME280;66332;50.436;15.378;2023-03-05T09:42:43;97826.28;;;1.37;62.77
77279;BME280;66332;50.436;15.378;2023-03-05T09:57:28;97806.44;;;1.17;65.96
77279;BME280;66332;50.436;15.378;2023-03-05T10:02:23;97829.28;;;1.42;66.61
77279;BME280;66332;50.436;15.378;2023-03-05T10:07:20;97820.66;;;1.32;66.64
77279;BME280;66332;50.436;15.378;2023-03-05T10:12:22;97818.84;;;1.63;66.03
77279;BME280;66332;50.436;15.378;2023-03-05T10:27:57;97800.03;;;1.80;65.28
77279;BME280;66332;50.436;15.378;2023-03-05T10:38:00;97794.44;;;1.95;64.16
77279;BME280;66332;50.436;15.378;2023-03-05T10:43:06;97794.72;;;1.92;63.92
77279;BME280;66332;50.436;15.378;2023-03-05T10:58:13;97777.88;;;2.64;61.43
77279;BME280;66332;50.436;15.378;2023-03-05T11:03:04;97770.66;;;2.48;62.09
77279;BME280;66332;50.436;15.378;2023-03-05T11:07:46;97765.38;;;2.87;61.45
77279;BME280;66332;50.436;15.378;2023-03-05T11:12:36;97733.63;;;2.56;59.97
77279;BME280;66332;50.436;15.378;2023-03-05T11:22:18;97739.41;;;2.87;59.63
77279;BME280;66332;50.436;15.378;2023-03-05T11:27:21;97731.97;;;2.64;60.08
77279;BME280;66332;50.436;15.378;2023-03-05T11:32:22;97731.03;;;2.65;60.00
77279;BME280;66332;50.436;15.378;2023-03-05T11:37:22;97735.88;;;2.31;64.86
77279;BME280;66332;50.436;15.378;2023-03-05T11:42:21;97710.94;;;1.43;70.65
77279;BME280;66332;50.436;15.378;2023-03-05T11:47:22;97722.84;;;1.65;71.55
77279;BME280;66332;50.436;15.378;2023-03-05T11:52:27;97726.94;;;1.87;71.17
77279;BME280;66332;50.436;15.378;2023-03-05T11:57:14;97723.66;;;1.84;71.42
77279;BME280;66332;50.436;15.378;2023-03-05T12:01:57;97705.50;;;1.84;71.43
77279;BME280;66332;50.436;15.378;2023-03-05T12:06:45;97699.38;;;1.66;72.44
77279;BME280;66332;50.436;15.378;2023-03-05T12:11:29;97689.13;;;1.55;74.04
77279;BME280;66332;50.436;15.378;2023-03-05T12:26:15;97655.66;;;2.57;66.00
77279;BME280;66332;50.436;15.378;2023-03-05T12:31:01;97644.88;;;2.80;64.41
77279;BME280;66332;50.436;15.378;2023-03-05T12:35:43;97653.13;;;2.75;63.75
77279;BME280;66332;50.436;15.378;2023-03-05T12:46:24;97605.63;;;2.65;61.88
77279;BME280;66332;50.436;15.378;2023-03-05T12:51:11;97626.75;;;2.97;62.57
77279;BME280;66332;50.436;15.378;2023-03-05T12:56:02;97635.69;;;3.49;61.01
77279;BME280;66332;50.436;15.378;2023-03-05T13:05:52;97630.47;;;3.31;60.29
77279;BME280;66332;50.436;15.378;2023-03-05T13:10:34;97582.00;;;3.39;58.17
77279;BME280;66332;50.436;15.378;2023-03-05T13:15:15;97626.00;;;3.59;57.78
77279;BME280;66332;50.436;15.378;2023-03-05T13:19:57;97613.47;;;3.36;57.00
77279;BME280;66332;50.436;15.378;2023-03-05T13:24:39;97624.56;;;3.20;57.37
77279;BME280;66332;50.436;15.378;2023-03-05T13:29:22;97617.97;;;2.81;58.08
77279;BME280;66332;50.436;15.378;2023-03-05T13:34:12;97626.28;;;2.84;58.48
77279;BME280;66332;50.436;15.378;2023-03-05T13:38:56;97621.84;;;2.94;58.80
77279;BME280;66332;50.436;15.378;2023-03-05T13:43:42;97612.88;;;3.07;57.50
77279;BME280;66332;50.436;15.378;2023-03-05T13:48:25;97598.28;;;3.06;55.94
77279;BME280;66332;50.436;15.378;2023-03-05T13:58:04;97605.75;;;3.09;55.01
77279;BME280;66332;50.436;15.378;2023-03-05T14:02:45;97614.81;;;3.22;54.75
77279;BME280;66332;50.436;15.378;2023-03-05T14:07:39;97603.06;;;3.01;55.34
77279;BME280;66332;50.436;15.378;2023-03-05T14:12:40;97602.75;;;2.86;55.61
77279;BME280;66332;50.436;15.378;2023-03-05T14:22:30;97598.28;;;3.06;56.44
77279;BME280;66332;50.436;15.378;2023-03-05T14:27:16;97582.81;;;3.04;55.68
77279;BME280;66332;50.436;15.378;2023-03-05T14:36:46;97589.84;;;2.76;58.33
77279;BME280;66332;50.436;15.378;2023-03-05T14:41:35;97580.09;;;2.60;59.59
77279;BME280;66332;50.436;15.378;2023-03-05T14:46:16;97579.34;;;2.50;60.79
77279;BME280;66332;50.436;15.378;2023-03-05T14:50:57;97564.84;;;2.75;60.45
77279;BME280;66332;50.436;15.378;2023-03-05T14:55:39;97584.75;;;2.84;61.03
77279;BME280;66332;50.436;15.378;2023-03-05T15:00:26;97583.38;;;2.62;61.50
77279;BME280;66332;50.436;15.378;2023-03-05T15:05:08;97571.16;;;2.45;62.30
77279;BME280;66332;50.436;15.378;2023-03-05T15:09:49;97549.31;;;2.20;63.37
77279;BME280;66332;50.436;15.378;2023-03-05T15:14:31;97569.25;;;2.19;65.20
77279;BME280;66332;50.436;15.378;2023-03-05T15:19:15;97556.75;;;2.05;66.27
77279;BME280;66332;50.436;15.378;2023-03-05T15:23:56;97566.72;;;2.00;67.49
77279;BME280;66332;50.436;15.378;2023-03-05T15:28:38;97559.22;;;1.97;67.70
77279;BME280;66332;50.436;15.378;2023-03-05T15:33:19;97547.09;;;1.88;67.85
77279;BME280;66332;50.436;15.378;2023-03-05T15:38:00;97540.31;;;1.87;67.84
77279;BME280;66332;50.436;15.378;2023-03-05T15:42:41;97553.22;;;1.96;68.72
77279;BME280;66332;50.436;15.378;2023-03-05T15:47:22;97549.97;;;2.22;67.65
77279;BME280;66332;50.436;15.378;2023-03-05T15:52:03;97541.94;;;2.15;68.34
77279;BME280;66332;50.436;15.378;2023-03-05T15:56:44;97545.03;;;2.01;69.81
77279;BME280;66332;50.436;15.378;2023-03-05T16:01:25;97534.38;;;1.94;70.23
77279;BME280;66332;50.436;15.378;2023-03-05T16:06:06;97531.44;;;1.89;70.29
77279;BME280;66332;50.436;15.378;2023-03-05T16:10:48;97539.78;;;1.83;71.15
77279;BME280;66332;50.436;15.378;2023-03-05T16:15:30;97505.31;;;1.63;70.59
77279;BME280;66332;50.436;15.378;2023-03-05T16:20:13;97526.72;;;1.65;71.41
77279;BME280;66332;50.436;15.378;2023-03-05T16:24:54;97516.09;;;1.68;72.30
77279;BME280;66332;50.436;15.378;2023-03-05T16:29:36;97520.28;;;1.69;71.98
77279;BME280;66332;50.436;15.378;2023-03-05T16:34:17;97520.69;;;1.74;72.62
77279;BME280;66332;50.436;15.378;2023-03-05T16:38:58;97520.03;;;1.63;73.41
77279;BME280;66332;50.436;15.378;2023-03-05T16:43:39;97513.97;;;1.44;74.76
77279;BME280;66332;50.436;15.378;2023-03-05T16:48:20;97513.69;;;1.37;75.74
77279;BME280;66332;50.436;15.378;2023-03-05T16:53:02;97500.63;;;1.29;76.92
77279;BME280;66332;50.436;15.378;2023-03-05T16:57:44;97519.16;;;1.25;77.66
77279;BME280;66332;50.436;15.378;2023-03-05T17:02:25;97509.06;;;1.22;78.84
77279;BME280;66332;50.436;15.378;2023-03-05T17:07:07;97515.78;;;1.05;81.07
77279;BME280;66332;50.436;15.378;2023-03-05T17:11:52;97517.53;;;0.85;82.40
77279;BME280;66332;50.436;15.378;2023-03-05T17:16:34;97523.25;;;0.69;83.71
77279;BME280;66332;50.436;15.378;2023-03-05T17:21:15;97507.19;;;0.65;83.69
77279;BME280;66332;50.436;15.378;2023-03-05T17:25:57;97519.72;;;0.70;83.80
77279;BME280;66332;50.436;15.378;2023-03-05T17:30:38;97533.59;;;0.69;84.02
77279;BME280;66332;50.436;15.378;2023-03-05T17:35:20;97538.06;;;0.57;85.55
77279;BME280;66332;50.436;15.378;2023-03-05T17:40:02;97541.84;;;0.34;87.60
77279;BME280;66332;50.436;15.378;2023-03-05T17:44:43;97508.69;;;0.08;88.05
77279;BME280;66332;50.436;15.378;2023-03-05T17:49:25;97522.06;;;0.23;85.41
77279;BME280;66332;50.436;15.378;2023-03-05T17:54:06;97513.78;;;0.29;84.25
77279;BME280;66332;50.436;15.378;2023-03-05T17:58:48;97515.41;;;0.30;84.84
77279;BME280;66332;50.436;15.378;2023-03-05T18:03:29;97529.06;;;0.52;84.13
77279;BME280;66332;50.436;15.378;2023-03-05T18:08:10;97527.88;;;0.65;83.00
77279;BME280;66332;50.436;15.378;2023-03-05T18:12:53;97543.13;;;0.68;83.64
77279;BME280;66332;50.436;15.378;2023-03-05T18:17:34;97544.22;;;0.56;82.32
77279;BME280;66332;50.436;15.378;2023-03-05T18:22:15;97529.34;;;0.49;82.48
77279;BME280;66332;50.436;15.378;2023-03-05T18:26:56;97528.25;;;0.51;82.54
77279;BME280;66332;50.436;15.378;2023-03-05T18:31:38;97527.31;;;0.52;81.20
77279;BME280;66332;50.436;15.378;2023-03-05T18:36:18;97517.38;;;0.48;82.45
77279;BME280;66332;50.436;15.378;2023-03-05T18:41:01;97538.88;;;0.58;81.73
77279;BME280;66332;50.436;15.378;2023-03-05T18:45:45;97530.59;;;0.64;81.53
77279;BME280;66332;50.436;15.378;2023-03-05T18:50:27;97523.94;;;0.61;81.19
77279;BME280;66332;50.436;15.378;2023-03-05T18:55:24;97525.94;;;0.48;81.34
77279;BME280;66332;50.436;15.378;2023-03-05T19:00:06;97525.28;;;0.56;81.37
77279;BME280;66332;50.436;15.378;2023-03-05T19:04:50;97531.13;;;0.58;81.04
77279;BME280;66332;50.436;15.378;2023-03-05T19:09:54;97531.13;;;0.48;81.80
77279;BME280;66332;50.436;15.378;2023-03-05T19:14:52;97507.81;;;0.38;81.87
77279;BME280;66332;50.436;15.378;2023-03-05T19:19:33;97513.28;;;0.45;82.12
77279;BME280;66332;50.436;15.378;2023-03-05T19:24:15;97541.47;;;0.58;81.97
77279;BME280;66332;50.436;15.378;2023-03-05T19:28:57;97543.84;;;0.80;81.38
77279;BME280;66332;50.436;15.378;2023-03-05T19:33:39;97543.03;;;0.89;81.09
77279;BME280;66332;50.436;15.378;2023-03-05T19:38:20;97537.56;;;0.83;80.47
77279;BME280;66332;50.436;15.378;2023-03-05T19:43:04;97535.09;;;0.62;81.51
77279;BME280;66332;50.436;15.378;2023-03-05T19:47:48;97518.50;;;0.64;81.81
77279;BME280;66332;50.436;15.378;2023-03-05T19:52:29;97535.38;;;0.68;81.29
77279;BME280;66332;50.436;15.378;2023-03-05T19:57:10;97518.34;;;0.56;81.02
77279;BME280;66332;50.436;15.378;2023-03-05T20:01:51;97523.41;;;0.77;80.60
77279;BME280;66332;50.436;15.378;2023-03-05T20:06:33;97497.09;;;0.72;80.69
77279;BME280;66332;50.436;15.378;2023-03-05T20:11:15;97506.66;;;0.62;81.15
77279;BME280;66332;50.436;15.378;2023-03-05T20:15:57;97513.06;;;0.67;81.15
77279;BME280;66332;50.436;15.378;2023-03-05T20:20:38;97521.75;;;0.66;80.50
77279;BME280;66332;50.436;15.378;2023-03-05T20:25:22;97512.25;;;0.67;81.30
77279;BME280;66332;50.436;15.378;2023-03-05T20:30:05;97511.66;;;0.63;81.41
77279;BME280;66332;50.436;15.378;2023-03-05T20:34:49;97507.56;;;0.61;81.64
77279;BME280;66332;50.436;15.378;2023-03-05T20:39:30;97513.03;;;0.58;83.13
77279;BME280;66332;50.436;15.378;2023-03-05T20:44:11;97509.22;;;0.62;82.50
77279;BME280;66332;50.436;15.378;2023-03-05T20:48:56;97506.22;;;0.66;81.44
77279;BME280;66332;50.436;15.378;2023-03-05T20:53:38;97508.00;;;0.66;81.48
77279;BME280;66332;50.436;15.378;2023-03-05T20:58:19;97504.59;;;0.65;81.76
77279;BME280;66332;50.436;15.378;2023-03-05T21:03:07;97488.97;;;0.67;81.22
77279;BME280;66332;50.436;15.378;2023-03-05T21:07:49;97492.91;;;0.71;82.10
77279;BME280;66332;50.436;15.378;2023-03-05T21:12:31;97495.59;;;0.69;81.42
77279;BME280;66332;50.436;15.378;2023-03-05T21:17:13;97474.91;;;0.60;81.63
77279;BME280;66332;50.436;15.378;2023-03-05T21:21:53;97464.84;;;0.57;81.23
77279;BME280;66332;50.436;15.378;2023-03-05T21:26:34;97472.88;;;0.63;81.40
77279;BME280;66332;50.436;15.378;2023-03-05T21:31:18;97465.22;;;0.42;82.50
77279;BME280;66332;50.436;15.378;2023-03-05T21:35:59;97459.22;;;0.22;82.81
77279;BME280;66332;50.436;15.378;2023-03-05T21:40:44;97446.84;;;0.16;83.44
77279;BME280;66332;50.436;15.378;2023-03-05T21:45:34;97463.31;;;0.35;82.69
77279;BME280;66332;50.436;15.378;2023-03-05T21:50:15;97457.34;;;0.34;81.68
77279;BME280;66332;50.436;15.378;2023-03-05T21:54:56;97460.19;;;0.31;82.16
77279;BME280;66332;50.436;15.378;2023-03-05T21:59:40;97456.53;;;0.34;82.67
77279;BME280;66332;50.436;15.378;2023-03-05T22:04:21;97464.56;;;0.40;82.00
77279;BME280;66332;50.436;15.378;2023-03-05T22:09:02;97456.38;;;0.35;83.00
77279;BME280;66332;50.436;15.378;2023-03-05T22:13:43;97439.63;;;0.20;82.98
77279;BME280;66332;50.436;15.378;2023-03-05T22:18:26;97449.44;;;0.26;83.25
77279;BME280;66332;50.436;15.378;2023-03-05T22:23:08;97436.22;;;0.29;82.35
77279;BME280;66332;50.436;15.378;2023-03-05T22:27:49;97438.56;;;0.52;81.82
77279;BME280;66332;50.436;15.378;2023-03-05T22:32:32;97425.50;;;0.34;82.23
77279;BME280;66332;50.436;15.378;2023-03-05T22:37:14;97436.38;;;0.47;82.31
77279;BME280;66332;50.436;15.378;2023-03-05T22:41:55;97428.38;;;0.40;83.03
77279;BME280;66332;50.436;15.378;2023-03-05T22:46:35;97424.81;;;0.32;82.99
77279;BME280;66332;50.436;15.378;2023-03-05T22:51:17;97430.53;;;0.26;83.61
